MSC Cordoba — A8OF8 — position and weather

sailwx.info

Track history (hours):
 
Tides and Currents Weather Stations Pressure Air Temp Water Temp Dewpoint Dewpoint Depression Visibility Wind Speed Wind Dir Waves Ship Positions

MSC Cordoba

Last reported at 2017-Jan-16 05:32 UTC. Time now 2017-Jan-20 03:52 UTC.
Position N 36°25' E 018°09'.

Length 275 m; draft 11.6 m.

Type: Ship (hazmat cat A). MMSI: 636091473.

Date/timePositionNaut miles runAvg speedWind from/ knotsBaromVisibWave heightAir tempDewpointWater temp
2017-Jan-16 05:32N 36°25' E 018°09'1920.1
2017-Jan-16 04:33N 36°25' E 017°45'2019.9
2017-Jan-16 03:33N 36°25' E 017°20'12819.9
2017-Jan-15 21:07N 36°28' E 014°41'1119.3
2017-Jan-15 20:33N 36°30' E 014°28'2019.6
2017-Jan-15 19:33N 36°36' E 014°05'1919.3
2017-Jan-15 18:33N 36°42' E 013°42'  
2017-Jan-13 06:33N 38°10' W 009°57'2221.9
2017-Jan-13 05:33N 38°31' W 010°04'2221.8
2017-Jan-13 04:33N 38°53' W 010°08'2721.8
2017-Jan-13 03:18N 39°20' W 010°09'73720.1
2017-Jan-11 14:33N 50°11' W 002°00'2423.5
2017-Jan-11 13:33N 50°15' W 001°24'4723.3
2017-Jan-11 11:33N 50°27' W 000°13'2121.7
2017-Jan-11 10:33N 50°32' E 000°20'2020.2
2017-Jan-11 09:33N 50°41' E 000°48'2319.8
2017-Jan-11 08:25N 50°55' E 001°17'1922.0
2017-Jan-11 07:33N 51°08' E 001°38'2222.0
2017-Jan-11 06:33N 51°24' E 002°02'2020.0
2017-Jan-11 05:33N 51°23' E 002°34'1414.1
2017-Jan-11 04:33N 51°25' E 002°56'1717.4
2017-Jan-11 03:33N 51°25' E 003°24'1111.4
2017-Jan-11 02:33N 51°24' E 003°43'13 9.4
2017-Jan-11 01:12N 51°23' E 004°03'710.0
2017-Jan-11 00:33N 51°22' E 004°13'5 4.7
2017-Jan-10 23:33N 51°17' E 004°15'0 0.0
2017-Jan-10 22:32N 51°17' E 004°15'0 0.0
2017-Jan-10 21:27N 51°17' E 004°15'0 0.0
2017-Jan-10 20:33N 51°17' E 004°15'0 0.0
2017-Jan-10 19:32N 51°17' E 004°15'0 0.0
2017-Jan-10 18:29N 51°17' E 004°15'0 0.0
2017-Jan-10 17:13N 51°17' E 004°15'0 0.0
2017-Jan-10 16:22N 51°18' E 004°15'0 0.0
2017-Jan-10 15:30N 51°17' E 004°15'0 0.0
2017-Jan-10 14:30N 51°17' E 004°15'0 0.0
2017-Jan-10 13:27N 51°17' E 004°15'0 0.0
2017-Jan-10 12:23N 51°17' E 004°15'0 0.0
2017-Jan-10 11:32N 51°17' E 004°15'0 0.0
2017-Jan-10 10:31N 51°17' E 004°15'0 0.0
2017-Jan-10 09:28N 51°17' E 004°15'0 0.0
2017-Jan-10 08:24N 51°17' E 004°15'0 0.0
2017-Jan-10 07:28N 51°17' E 004°15'0 0.0
2017-Jan-10 06:31N 51°17' E 004°15'0 0.0
2017-Jan-10 05:24N 51°17' E 004°15'0 0.0
2017-Jan-10 04:33N 51°17' E 004°15'0 0.0
2017-Jan-10 03:32N 51°17' E 004°15'0 0.0
2017-Jan-10 02:05N 51°17' E 004°15'0 0.0
2017-Jan-10 01:25N 51°17' E 004°15'0 0.0
2017-Jan-10 00:31N 51°17' E 004°15'0 0.0
2017-Jan-09 23:31N 51°17' E 004°15'0 0.0
2017-Jan-09 22:27N 51°17' E 004°15'0 0.0
2017-Jan-09 21:33N 51°17' E 004°15'0 0.0
2017-Jan-09 20:20N 51°17' E 004°15'0 0.0
2017-Jan-09 19:32N 51°17' E 004°15'0 0.0
2017-Jan-09 18:07N 51°17' E 004°15'0 0.0
2017-Jan-09 17:31N 51°17' E 004°15'1 0.9
2017-Jan-09 16:33N 51°18' E 004°16'6 6.3
2017-Jan-09 15:33N 51°23' E 004°09'7 7.3
2017-Jan-09 14:33N 51°24' E 003°58'9 9.2
2017-Jan-09 13:33N 51°23' E 003°43'9 8.8
2017-Jan-09 12:33N 51°25' E 003°29'1615.7
2017-Jan-09 11:33N 51°24' E 003°04'1514.6
2017-Jan-09 10:33N 51°22' E 002°41'4 3.8
2017-Jan-09 09:32N 51°24' E 002°35'0 0.1
2017-Jan-09 08:32N 51°24' E 002°35'0 0.0
2017-Jan-09 07:31N 51°24' E 002°35'0 0.1
2017-Jan-09 06:28N 51°24' E 002°35'0 0.0
2017-Jan-09 05:33N 51°24' E 002°35'0 0.0
2017-Jan-09 04:33N 51°24' E 002°35'0 0.0
2017-Jan-09 03:32N 51°24' E 002°35'0 0.1
2017-Jan-09 02:32N 51°24' E 002°35'0 0.1
2017-Jan-09 01:32N 51°24' E 002°35'0 0.0
2017-Jan-09 00:31N 51°24' E 002°35'0 0.0
2017-Jan-08 23:31N 51°24' E 002°35'0 0.0
2017-Jan-08 22:33N 51°24' E 002°35'0 0.0
2017-Jan-08 21:33N 51°24' E 002°35'0 0.0
2017-Jan-08 20:32N 51°24' E 002°35'0 0.0
2017-Jan-08 19:32N 51°24' E 002°35'0 0.0
2017-Jan-08 18:32N 51°24' E 002°35'0 0.0
2017-Jan-08 17:28N 51°24' E 002°35'0 0.0
2017-Jan-08 16:31N 51°24' E 002°35'0 0.0
2017-Jan-08 15:30N 51°24' E 002°35'0 0.0
2017-Jan-08 14:33N 51°24' E 002°35'0 0.0
2017-Jan-08 13:31N 51°24' E 002°35'0 0.0
2017-Jan-08 12:31N 51°24' E 002°35'0 0.0
2017-Jan-08 11:31N 51°24' E 002°35'0 0.0
2017-Jan-08 10:33N 51°24' E 002°35'0 0.0
2017-Jan-08 09:33N 51°24' E 002°35'0 0.0
2017-Jan-08 08:32N 51°24' E 002°35'0 0.0
2017-Jan-08 07:32N 51°24' E 002°35'0 0.0
2017-Jan-08 06:31N 51°24' E 002°35'0 0.0
2017-Jan-08 05:28N 51°24' E 002°35'0 0.0
2017-Jan-08 04:31N 51°24' E 002°35'0 0.0
2017-Jan-08 03:33N 51°24' E 002°35'0 0.0
2017-Jan-08 02:33N 51°24' E 002°35'0 0.0
2017-Jan-08 01:32N 51°24' E 002°35'0 0.1
2017-Jan-08 00:32N 51°24' E 002°35'0 0.0
2017-Jan-07 23:31N 51°24' E 002°35'0 0.0
2017-Jan-07 22:31N 51°24' E 002°35'0 0.0
2017-Jan-07 21:34N 51°24' E 002°35'0 0.0
2017-Jan-07 20:33N 51°24' E 002°35'0 0.0
2017-Jan-07 19:33N 51°24' E 002°35'0 0.1
2017-Jan-07 18:32N 51°24' E 002°35'0 0.0
2017-Jan-07 17:32N 51°24' E 002°35'0 0.0
2017-Jan-07 15:13N 51°24' E 002°35'0 0.0
2017-Jan-07 14:30N 51°24' E 002°35'0 0.1
2017-Jan-07 13:33N 51°24' E 002°35'0 0.0
2017-Jan-07 12:33N 51°24' E 002°35'0 0.0
2017-Jan-07 11:32N 51°24' E 002°35'0 0.0
2017-Jan-07 10:32N 51°24' E 002°35'0 0.0
2017-Jan-07 09:31N 51°24' E 002°35'0 0.0
2017-Jan-07 08:31N 51°24' E 002°35'0 0.0
2017-Jan-07 07:33N 51°24' E 002°35'0 0.0
2017-Jan-07 06:33N 51°24' E 002°35'0 0.0
2017-Jan-07 05:33N 51°24' E 002°35'0 0.0
2017-Jan-07 04:32N 51°24' E 002°35'0 0.0
2017-Jan-07 03:28N 51°24' E 002°35'0 0.1
2017-Jan-07 02:31N 51°24' E 002°35'0 0.2
2017-Jan-07 01:33N 51°24' E 002°35'5 5.2
2017-Jan-07 00:33N 51°22' E 002°28'1212.1
2017-Jan-06 23:33N 51°20' E 002°08'1111.4
2017-Jan-06 22:33N 51°31' E 002°06'1515.3
2017-Jan-06 21:33N 51°43' E 002°22'1411.2
2017-Jan-06 20:20N 51°52' E 002°06'1114.6
2017-Jan-06 19:33N 51°48' E 001°49'1110.9
2017-Jan-06 18:33N 51°53' E 001°34'10 9.6
2017-Jan-06 17:33N 51°56' E 001°19'1 1.4
2017-Jan-06 16:28N 51°58' E 001°18'0 0.0
2017-Jan-06 15:33N 51°58' E 001°18'0 0.0
2017-Jan-06 14:33N 51°58' E 001°18'0 0.0
2017-Jan-06 13:33N 51°58' E 001°18'0 0.0
2017-Jan-06 12:32N 51°58' E 001°18'0 0.0
2017-Jan-06 11:32N 51°58' E 001°18'0 0.0
2017-Jan-06 10:31N 51°58' E 001°18'0 0.0
2017-Jan-06 09:31N 51°58' E 001°18'0 0.0
2017-Jan-06 08:33N 51°58' E 001°18'0 0.0
2017-Jan-06 07:30N 51°58' E 001°18'0 0.0
2017-Jan-06 06:32N 51°58' E 001°18'0 0.0
2017-Jan-06 05:32N 51°58' E 001°18'  
Track history (hours):
 
Tides and Currents Weather Stations Pressure Air Temp Water Temp Dewpoint Dewpoint Depression Visibility Wind Speed Wind Dir Waves Ship Positions

MSC Cordoba

Last reported at 2017-Jan-16 05:32 UTC. Time now 2017-Jan-20 03:52 UTC.
Position N 36°25' E 018°09'.

Length 275 m; draft 11.6 m.

Type: Ship (hazmat cat A). MMSI: 636091473.

Date/timePositionNaut miles runAvg speedWind from/ knotsBaromVisibWave heightAir tempDewpointWater temp
2017-Jan-16 05:32N 36°25' E 018°09'1920.1
2017-Jan-16 04:33N 36°25' E 017°45'2019.9
2017-Jan-16 03:33N 36°25' E 017°20'12819.9
2017-Jan-15 21:07N 36°28' E 014°41'1119.3
2017-Jan-15 20:33N 36°30' E 014°28'2019.6
2017-Jan-15 19:33N 36°36' E 014°05'1919.3
2017-Jan-15 18:33N 36°42' E 013°42'  
2017-Jan-13 06:33N 38°10' W 009°57'2221.9
2017-Jan-13 05:33N 38°31' W 010°04'2221.8
2017-Jan-13 04:33N 38°53' W 010°08'2721.8
2017-Jan-13 03:18N 39°20' W 010°09'73720.1
2017-Jan-11 14:33N 50°11' W 002°00'2423.5
2017-Jan-11 13:33N 50°15' W 001°24'4723.3
2017-Jan-11 11:33N 50°27' W 000°13'2121.7
2017-Jan-11 10:33N 50°32' E 000°20'2020.2
2017-Jan-11 09:33N 50°41' E 000°48'2319.8
2017-Jan-11 08:25N 50°55' E 001°17'1922.0
2017-Jan-11 07:33N 51°08' E 001°38'2222.0
2017-Jan-11 06:33N 51°24' E 002°02'2020.0
2017-Jan-11 05:33N 51°23' E 002°34'1414.1
2017-Jan-11 04:33N 51°25' E 002°56'1717.4
2017-Jan-11 03:33N 51°25' E 003°24'1111.4
2017-Jan-11 02:33N 51°24' E 003°43'13 9.4
2017-Jan-11 01:12N 51°23' E 004°03'710.0
2017-Jan-11 00:33N 51°22' E 004°13'5 4.7
2017-Jan-10 23:33N 51°17' E 004°15'0 0.0
2017-Jan-10 22:32N 51°17' E 004°15'0 0.0
2017-Jan-10 21:27N 51°17' E 004°15'0 0.0
2017-Jan-10 20:33N 51°17' E 004°15'0 0.0
2017-Jan-10 19:32N 51°17' E 004°15'0 0.0
2017-Jan-10 18:29N 51°17' E 004°15'0 0.0
2017-Jan-10 17:13N 51°17' E 004°15'0 0.0
2017-Jan-10 16:22N 51°18' E 004°15'0 0.0
2017-Jan-10 15:30N 51°17' E 004°15'0 0.0
2017-Jan-10 14:30N 51°17' E 004°15'0 0.0
2017-Jan-10 13:27N 51°17' E 004°15'0 0.0
2017-Jan-10 12:23N 51°17' E 004°15'0 0.0
2017-Jan-10 11:32N 51°17' E 004°15'0 0.0
2017-Jan-10 10:31N 51°17' E 004°15'0 0.0
2017-Jan-10 09:28N 51°17' E 004°15'0 0.0
2017-Jan-10 08:24N 51°17' E 004°15'0 0.0
2017-Jan-10 07:28N 51°17' E 004°15'0 0.0
2017-Jan-10 06:31N 51°17' E 004°15'0 0.0
2017-Jan-10 05:24N 51°17' E 004°15'0 0.0
2017-Jan-10 04:33N 51°17' E 004°15'0 0.0
2017-Jan-10 03:32N 51°17' E 004°15'0 0.0
2017-Jan-10 02:05N 51°17' E 004°15'0 0.0
2017-Jan-10 01:25N 51°17' E 004°15'0 0.0
2017-Jan-10 00:31N 51°17' E 004°15'0 0.0
2017-Jan-09 23:31N 51°17' E 004°15'0 0.0
2017-Jan-09 22:27N 51°17' E 004°15'0 0.0
2017-Jan-09 21:33N 51°17' E 004°15'0 0.0
2017-Jan-09 20:20N 51°17' E 004°15'0 0.0
2017-Jan-09 19:32N 51°17' E 004°15'0 0.0
2017-Jan-09 18:07N 51°17' E 004°15'0 0.0
2017-Jan-09 17:31N 51°17' E 004°15'1 0.9
2017-Jan-09 16:33N 51°18' E 004°16'6 6.3
2017-Jan-09 15:33N 51°23' E 004°09'7 7.3
2017-Jan-09 14:33N 51°24' E 003°58'9 9.2
2017-Jan-09 13:33N 51°23' E 003°43'9 8.8
2017-Jan-09 12:33N 51°25' E 003°29'1615.7
2017-Jan-09 11:33N 51°24' E 003°04'1514.6
2017-Jan-09 10:33N 51°22' E 002°41'4 3.8
2017-Jan-09 09:32N 51°24' E 002°35'0 0.1
2017-Jan-09 08:32N 51°24' E 002°35'0 0.0
2017-Jan-09 07:31N 51°24' E 002°35'0 0.1
2017-Jan-09 06:28N 51°24' E 002°35'0 0.0
2017-Jan-09 05:33N 51°24' E 002°35'0 0.0
2017-Jan-09 04:33N 51°24' E 002°35'0 0.0
2017-Jan-09 03:32N 51°24' E 002°35'0 0.1
2017-Jan-09 02:32N 51°24' E 002°35'0 0.1
2017-Jan-09 01:32N 51°24' E 002°35'0 0.0
2017-Jan-09 00:31N 51°24' E 002°35'0 0.0
2017-Jan-08 23:31N 51°24' E 002°35'0 0.0
2017-Jan-08 22:33N 51°24' E 002°35'0 0.0
2017-Jan-08 21:33N 51°24' E 002°35'0 0.0
2017-Jan-08 20:32N 51°24' E 002°35'0 0.0
2017-Jan-08 19:32N 51°24' E 002°35'0 0.0
2017-Jan-08 18:32N 51°24' E 002°35'0 0.0
2017-Jan-08 17:28N 51°24' E 002°35'0 0.0
2017-Jan-08 16:31N 51°24' E 002°35'0 0.0
2017-Jan-08 15:30N 51°24' E 002°35'0 0.0
2017-Jan-08 14:33N 51°24' E 002°35'0 0.0
2017-Jan-08 13:31N 51°24' E 002°35'0 0.0
2017-Jan-08 12:31N 51°24' E 002°35'0 0.0
2017-Jan-08 11:31N 51°24' E 002°35'0 0.0
2017-Jan-08 10:33N 51°24' E 002°35'0 0.0
2017-Jan-08 09:33N 51°24' E 002°35'0 0.0
2017-Jan-08 08:32N 51°24' E 002°35'0 0.0
2017-Jan-08 07:32N 51°24' E 002°35'0 0.0
2017-Jan-08 06:31N 51°24' E 002°35'0 0.0
2017-Jan-08 05:28N 51°24' E 002°35'0 0.0
2017-Jan-08 04:31N 51°24' E 002°35'0 0.0
2017-Jan-08 03:33N 51°24' E 002°35'0 0.0
2017-Jan-08 02:33N 51°24' E 002°35'0 0.0
2017-Jan-08 01:32N 51°24' E 002°35'0 0.1
2017-Jan-08 00:32N 51°24' E 002°35'0 0.0
2017-Jan-07 23:31N 51°24' E 002°35'0 0.0
2017-Jan-07 22:31N 51°24' E 002°35'0 0.0
2017-Jan-07 21:34N 51°24' E 002°35'0 0.0
2017-Jan-07 20:33N 51°24' E 002°35'0 0.0
2017-Jan-07 19:33N 51°24' E 002°35'0 0.1
2017-Jan-07 18:32N 51°24' E 002°35'0 0.0
2017-Jan-07 17:32N 51°24' E 002°35'0 0.0
2017-Jan-07 15:13N 51°24' E 002°35'0 0.0
2017-Jan-07 14:30N 51°24' E 002°35'0 0.1
2017-Jan-07 13:33N 51°24' E 002°35'0 0.0
2017-Jan-07 12:33N 51°24' E 002°35'0 0.0
2017-Jan-07 11:32N 51°24' E 002°35'0 0.0
2017-Jan-07 10:32N 51°24' E 002°35'0 0.0
2017-Jan-07 09:31N 51°24' E 002°35'0 0.0
2017-Jan-07 08:31N 51°24' E 002°35'0 0.0
2017-Jan-07 07:33N 51°24' E 002°35'0 0.0
2017-Jan-07 06:33N 51°24' E 002°35'0 0.0
2017-Jan-07 05:33N 51°24' E 002°35'0 0.0
2017-Jan-07 04:32N 51°24' E 002°35'0 0.0
2017-Jan-07 03:28N 51°24' E 002°35'0 0.1
2017-Jan-07 02:31N 51°24' E 002°35'0 0.2
2017-Jan-07 01:33N 51°24' E 002°35'5 5.2
2017-Jan-07 00:33N 51°22' E 002°28'1212.1
2017-Jan-06 23:33N 51°20' E 002°08'1111.4
2017-Jan-06 22:33N 51°31' E 002°06'1515.3
2017-Jan-06 21:33N 51°43' E 002°22'1411.2
2017-Jan-06 20:20N 51°52' E 002°06'1114.6
2017-Jan-06 19:33N 51°48' E 001°49'1110.9
2017-Jan-06 18:33N 51°53' E 001°34'10 9.6
2017-Jan-06 17:33N 51°56' E 001°19'1 1.4
2017-Jan-06 16:28N 51°58' E 001°18'0 0.0
2017-Jan-06 15:33N 51°58' E 001°18'0 0.0
2017-Jan-06 14:33N 51°58' E 001°18'0 0.0
2017-Jan-06 13:33N 51°58' E 001°18'0 0.0
2017-Jan-06 12:32N 51°58' E 001°18'0 0.0
2017-Jan-06 11:32N 51°58' E 001°18'0 0.0
2017-Jan-06 10:31N 51°58' E 001°18'0 0.0
2017-Jan-06 09:31N 51°58' E 001°18'0 0.0
2017-Jan-06 08:33N 51°58' E 001°18'0 0.0
2017-Jan-06 07:30N 51°58' E 001°18'0 0.0
2017-Jan-06 06:32N 51°58' E 001°18'0 0.0
2017-Jan-06 05:32N 51°58' E 001°18'  

Dump ship's entire track history